sensor_id;sensor_type;location;lat;lon;timestamp;pressure;altitude;pressure_sealevel;temperature;humidity
71697;BME280;68167;59.120;37.898;2024-01-11T00:01:33;97411.19;;;-6.87;79.30
71697;BME280;68167;59.120;37.898;2024-01-11T00:03:59;97398.25;;;-6.87;79.21
71697;BME280;68167;59.120;37.898;2024-01-11T00:06:25;97351.59;;;-7.06;79.75
71697;BME280;68167;59.120;37.898;2024-01-11T00:08:51;97315.50;;;-7.19;79.31
71697;BME280;68167;59.120;37.898;2024-01-11T00:11:18;97353.91;;;-6.84;79.65
71697;BME280;68167;59.120;37.898;2024-01-11T00:13:44;97386.81;;;-6.60;79.46
71697;BME280;68167;59.120;37.898;2024-01-11T00:16:10;97371.28;;;-6.60;79.31
71697;BME280;68167;59.120;37.898;2024-01-11T00:18:36;97370.84;;;-6.50;79.91
71697;BME280;68167;59.120;37.898;2024-01-11T00:21:03;97363.44;;;-6.47;79.44
71697;BME280;68167;59.120;37.898;2024-01-11T00:23:29;97325.34;;;-6.65;79.53
71697;BME280;68167;59.120;37.898;2024-01-11T00:25:55;97351.66;;;-6.43;79.62
71697;BME280;68167;59.120;37.898;2024-01-11T00:28:21;97317.56;;;-6.58;79.50
71697;BME280;68167;59.120;37.898;2024-01-11T00:30:47;97317.34;;;-6.56;79.72
71697;BME280;68167;59.120;37.898;2024-01-11T00:33:14;97312.91;;;-6.49;79.48
71697;BME280;68167;59.120;37.898;2024-01-11T00:35:40;97302.72;;;-6.44;79.51
71697;BME280;68167;59.120;37.898;2024-01-11T00:38:06;97296.34;;;-6.42;79.69
71697;BME280;68167;59.120;37.898;2024-01-11T00:40:32;97287.34;;;-6.39;79.94
71697;BME280;68167;59.120;37.898;2024-01-11T00:42:59;97336.06;;;-6.05;79.10
71697;BME280;68167;59.120;37.898;2024-01-11T00:45:25;97324.88;;;-5.99;79.09
71697;BME280;68167;59.120;37.898;2024-01-11T00:47:51;97279.66;;;-6.21;79.37
71697;BME280;68167;59.120;37.898;2024-01-11T00:50:17;97334.31;;;-5.86;79.50
71697;BME280;68167;59.120;37.898;2024-01-11T00:52:43;97285.31;;;-6.06;79.55
71697;BME280;68167;59.120;37.898;2024-01-11T00:55:09;97308.41;;;-5.86;79.47
71697;BME280;68167;59.120;37.898;2024-01-11T00:57:36;97327.97;;;-5.72;79.78
71697;BME280;68167;59.120;37.898;2024-01-11T01:00:02;97307.31;;;-5.78;79.40
71697;BME280;68167;59.120;37.898;2024-01-11T01:02:30;97234.44;;;-6.18;79.03
71697;BME280;68167;59.120;37.898;2024-01-11T01:04:57;97264.06;;;-5.89;79.08
71697;BME280;68167;59.120;37.898;2024-01-11T01:07:23;97225.81;;;-6.12;79.27
71697;BME280;68167;59.120;37.898;2024-01-11T01:09:49;97256.72;;;-5.92;79.35
71697;BME280;68167;59.120;37.898;2024-01-11T01:12:16;97308.34;;;-5.61;79.23
71697;BME280;68167;59.120;37.898;2024-01-11T01:14:42;97281.28;;;-5.65;79.49
71697;BME280;68167;59.120;37.898;2024-01-11T01:17:08;97251.34;;;-5.79;79.50
71697;BME280;68167;59.120;37.898;2024-01-11T01:19:35;97278.34;;;-5.50;79.52
71697;BME280;68167;59.120;37.898;2024-01-11T01:22:01;97255.88;;;-5.56;79.91
71697;BME280;68167;59.120;37.898;2024-01-11T01:24:27;97277.91;;;-5.29;80.71
71697;BME280;68167;59.120;37.898;2024-01-11T01:26:53;97272.75;;;-5.17;80.62
71697;BME280;68167;59.120;37.898;2024-01-11T01:29:20;97212.91;;;-5.46;80.58
71697;BME280;68167;59.120;37.898;2024-01-11T01:31:46;97291.34;;;-4.90;80.88
71697;BME280;68167;59.120;37.898;2024-01-11T01:34:12;97248.91;;;-5.08;80.82
71697;BME280;68167;59.120;37.898;2024-01-11T01:36:40;97277.16;;;-4.88;80.97
71697;BME280;68167;59.120;37.898;2024-01-11T01:39:06;97283.19;;;-4.76;81.19
71697;BME280;68167;59.120;37.898;2024-01-11T01:41:33;97281.28;;;-4.69;80.75
71697;BME280;68167;59.120;37.898;2024-01-11T01:43:59;97254.59;;;-4.87;83.41
71697;BME280;68167;59.120;37.898;2024-01-11T01:46:27;97248.38;;;-4.98;84.65
71697;BME280;68167;59.120;37.898;2024-01-11T01:48:56;97245.50;;;-5.08;84.87
71697;BME280;68167;59.120;37.898;2024-01-11T01:51:25;97209.59;;;-5.35;85.17
71697;BME280;68167;59.120;37.898;2024-01-11T01:53:53;97229.69;;;-5.18;85.56
71697;BME280;68167;59.120;37.898;2024-01-11T01:56:22;97217.22;;;-5.40;85.29
71697;BME280;68167;59.120;37.898;2024-01-11T01:58:51;97293.91;;;-5.02;85.09
71697;BME280;68167;59.120;37.898;2024-01-11T02:01:20;97288.94;;;-5.04;85.23
71697;BME280;68167;59.120;37.898;2024-01-11T02:03:49;97327.47;;;-5.07;84.90
71697;BME280;68167;59.120;37.898;2024-01-11T02:06:16;97238.16;;;-5.41;84.80
71697;BME280;68167;59.120;37.898;2024-01-11T02:08:43;97256.09;;;-5.40;85.01
71697;BME280;68167;59.120;37.898;2024-01-11T02:11:10;97284.88;;;-5.29;84.94
71697;BME280;68167;59.120;37.898;2024-01-11T02:13:37;97296.53;;;-5.20;85.22
71697;BME280;68167;59.120;37.898;2024-01-11T02:16:04;97274.44;;;-5.41;84.86
71697;BME280;68167;59.120;37.898;2024-01-11T02:18:30;97281.50;;;-5.30;85.14
71697;BME280;68167;59.120;37.898;2024-01-11T02:21:00;97292.09;;;-5.32;84.87
71697;BME280;68167;59.120;37.898;2024-01-11T02:23:28;97255.59;;;-5.67;85.02
71697;BME280;68167;59.120;37.898;2024-01-11T02:25:55;97297.19;;;-5.43;84.75
71697;BME280;68167;59.120;37.898;2024-01-11T02:28:21;97262.22;;;-5.71;85.35
71697;BME280;68167;59.120;37.898;2024-01-11T02:30:47;97299.94;;;-5.56;85.04
71697;BME280;68167;59.120;37.898;2024-01-11T02:33:14;97318.22;;;-5.51;84.95
71697;BME280;68167;59.120;37.898;2024-01-11T02:35:42;97260.22;;;-5.87;84.96
71697;BME280;68167;59.120;37.898;2024-01-11T02:38:09;97291.91;;;-5.73;85.26
71697;BME280;68167;59.120;37.898;2024-01-11T02:40:37;97331.97;;;-5.51;85.45
71697;BME280;68167;59.120;37.898;2024-01-11T02:43:09;97312.38;;;-5.65;84.80
71697;BME280;68167;59.120;37.898;2024-01-11T02:45:37;97330.88;;;-5.61;84.80
71697;BME280;68167;59.120;37.898;2024-01-11T02:48:03;97312.28;;;-5.77;85.32
71697;BME280;68167;59.120;37.898;2024-01-11T02:50:29;97277.53;;;-6.06;84.63
71697;BME280;68167;59.120;37.898;2024-01-11T02:52:56;97356.25;;;-5.70;85.22
71697;BME280;68167;59.120;37.898;2024-01-11T02:55:23;97293.06;;;-6.06;85.03
71697;BME280;68167;59.120;37.898;2024-01-11T02:57:49;97341.06;;;-5.85;84.51
71697;BME280;68167;59.120;37.898;2024-01-11T03:00:15;97295.75;;;-6.19;84.62
71697;BME280;68167;59.120;37.898;2024-01-11T03:02:41;97367.63;;;-5.89;84.05
71697;BME280;68167;59.120;37.898;2024-01-11T03:05:08;97312.72;;;-6.23;84.46
71697;BME280;68167;59.120;37.898;2024-01-11T03:07:34;97290.00;;;-6.46;84.04
71697;BME280;68167;59.120;37.898;2024-01-11T03:10:00;97351.69;;;-6.18;83.38
71697;BME280;68167;59.120;37.898;2024-01-11T03:12:27;97376.34;;;-6.09;84.17
71697;BME280;68167;59.120;37.898;2024-01-11T03:14:54;97355.38;;;-6.32;84.19
71697;BME280;68167;59.120;37.898;2024-01-11T03:17:20;97380.81;;;-6.22;84.49
71697;BME280;68167;59.120;37.898;2024-01-11T03:19:47;97383.00;;;-6.26;84.07
71697;BME280;68167;59.120;37.898;2024-01-11T03:22:13;97345.03;;;-6.63;83.74
71697;BME280;68167;59.120;37.898;2024-01-11T03:24:39;97360.94;;;-6.60;83.92
71697;BME280;68167;59.120;37.898;2024-01-11T03:27:06;97388.31;;;-6.46;84.10
71697;BME280;68167;59.120;37.898;2024-01-11T03:29:32;97407.63;;;-6.48;83.90
71697;BME280;68167;59.120;37.898;2024-01-11T03:31:59;97395.94;;;-6.57;84.13
71697;BME280;68167;59.120;37.898;2024-01-11T03:34:25;97412.88;;;-6.61;83.96
71697;BME280;68167;59.120;37.898;2024-01-11T03:36:52;97417.25;;;-6.62;83.89
71697;BME280;68167;59.120;37.898;2024-01-11T03:39:18;97351.81;;;-7.07;83.53
71697;BME280;68167;59.120;37.898;2024-01-11T03:41:48;97424.47;;;-6.77;84.10
71697;BME280;68167;59.120;37.898;2024-01-11T03:44:14;97420.31;;;-6.78;83.66
71697;BME280;68167;59.120;37.898;2024-01-11T03:46:41;97422.53;;;-6.88;83.38
71697;BME280;68167;59.120;37.898;2024-01-11T03:49:07;97436.66;;;-6.91;83.90
71697;BME280;68167;59.120;37.898;2024-01-11T03:51:34;97408.88;;;-7.09;83.08
71697;BME280;68167;59.120;37.898;2024-01-11T03:54:00;97443.41;;;-6.90;83.70
71697;BME280;68167;59.120;37.898;2024-01-11T03:56:27;97402.56;;;-7.19;83.44
71697;BME280;68167;59.120;37.898;2024-01-11T03:58:53;97414.47;;;-7.18;83.93
71697;BME280;68167;59.120;37.898;2024-01-11T04:01:19;97409.34;;;-7.32;83.27
71697;BME280;68167;59.120;37.898;2024-01-11T04:03:46;97427.59;;;-7.20;83.71
71697;BME280;68167;59.120;37.898;2024-01-11T04:06:22;97446.66;;;-7.14;83.28
71697;BME280;68167;59.120;37.898;2024-01-11T04:08:50;97451.06;;;-7.21;83.13
71697;BME280;68167;59.120;37.898;2024-01-11T04:11:17;97421.88;;;-7.42;83.10
71697;BME280;68167;59.120;37.898;2024-01-11T04:13:43;97409.16;;;-7.56;83.35
71697;BME280;68167;59.120;37.898;2024-01-11T04:16:10;97461.81;;;-7.31;83.44
71697;BME280;68167;59.120;37.898;2024-01-11T04:18:36;97453.88;;;-7.43;83.52
71697;BME280;68167;59.120;37.898;2024-01-11T04:21:02;97473.13;;;-7.32;83.09
71697;BME280;68167;59.120;37.898;2024-01-11T04:23:29;97496.38;;;-7.39;83.25
71697;BME280;68167;59.120;37.898;2024-01-11T04:25:55;97501.53;;;-7.45;83.45
71697;BME280;68167;59.120;37.898;2024-01-11T04:28:22;97516.63;;;-7.55;82.27
71697;BME280;68167;59.120;37.898;2024-01-11T04:30:48;97476.50;;;-7.91;82.43
71697;BME280;68167;59.120;37.898;2024-01-11T04:33:17;97474.69;;;-8.04;81.86
71697;BME280;68167;59.120;37.898;2024-01-11T04:35:43;97531.69;;;-7.79;82.07
71697;BME280;68167;59.120;37.898;2024-01-11T04:38:09;97494.31;;;-8.16;82.58
71697;BME280;68167;59.120;37.898;2024-01-11T04:40:36;97522.75;;;-7.96;82.34
71697;BME280;68167;59.120;37.898;2024-01-11T04:43:03;97544.00;;;-7.94;82.06
71697;BME280;68167;59.120;37.898;2024-01-11T04:45:29;97549.53;;;-7.97;83.18
71697;BME280;68167;59.120;37.898;2024-01-11T04:47:58;97537.81;;;-8.00;83.43
71697;BME280;68167;59.120;37.898;2024-01-11T04:50:24;97497.22;;;-8.32;82.30
71697;BME280;68167;59.120;37.898;2024-01-11T04:52:51;97520.66;;;-8.27;82.99
71697;BME280;68167;59.120;37.898;2024-01-11T04:55:17;97523.63;;;-8.37;82.74
71697;BME280;68167;59.120;37.898;2024-01-11T04:57:44;97546.28;;;-8.19;82.59
71697;BME280;68167;59.120;37.898;2024-01-11T05:00:11;97560.38;;;-8.21;82.97
71697;BME280;68167;59.120;37.898;2024-01-11T05:02:37;97525.19;;;-8.42;82.81
71697;BME280;68167;59.120;37.898;2024-01-11T05:05:03;97565.09;;;-8.32;82.85
71697;BME280;68167;59.120;37.898;2024-01-11T05:07:30;97529.03;;;-8.73;82.88
71697;BME280;68167;59.120;37.898;2024-01-11T05:09:56;97474.56;;;-8.98;82.44
71697;BME280;68167;59.120;37.898;2024-01-11T05:12:22;97520.25;;;-8.85;81.56
71697;BME280;68167;59.120;37.898;2024-01-11T05:14:49;97571.91;;;-8.65;82.28
71697;BME280;68167;59.120;37.898;2024-01-11T05:17:15;97577.25;;;-8.67;82.91
71697;BME280;68167;59.120;37.898;2024-01-11T05:19:41;97568.88;;;-8.75;82.13
71697;BME280;68167;59.120;37.898;2024-01-11T05:22:07;97494.81;;;-9.29;82.81
71697;BME280;68167;59.120;37.898;2024-01-11T05:24:33;97573.00;;;-8.81;81.57
71697;BME280;68167;59.120;37.898;2024-01-11T05:27:01;97530.41;;;-9.11;82.01
71697;BME280;68167;59.120;37.898;2024-01-11T05:29:27;97564.63;;;-8.89;81.68
71697;BME280;68167;59.120;37.898;2024-01-11T05:31:53;97603.19;;;-8.75;82.95
71697;BME280;68167;59.120;37.898;2024-01-11T05:34:20;97598.59;;;-8.79;82.63
71697;BME280;68167;59.120;37.898;2024-01-11T05:36:46;97583.06;;;-8.86;83.15
71697;BME280;68167;59.120;37.898;2024-01-11T05:39:13;97567.56;;;-8.92;81.78
71697;BME280;68167;59.120;37.898;2024-01-11T05:41:43;97601.34;;;-8.81;81.81
71697;BME280;68167;59.120;37.898;2024-01-11T05:44:09;97611.09;;;-8.76;82.23
71697;BME280;68167;59.120;37.898;2024-01-11T05:46:36;97606.88;;;-8.84;82.21
71697;BME280;68167;59.120;37.898;2024-01-11T05:49:02;97621.78;;;-8.79;82.17
71697;BME280;68167;59.120;37.898;2024-01-11T05:51:29;97582.28;;;-9.14;82.29
71697;BME280;68167;59.120;37.898;2024-01-11T05:53:56;97630.44;;;-8.87;81.74
71697;BME280;68167;59.120;37.898;2024-01-11T05:56:22;97593.88;;;-9.25;82.65
71697;BME280;68167;59.120;37.898;2024-01-11T05:58:49;97637.94;;;-8.92;82.11
71697;BME280;68167;59.120;37.898;2024-01-11T06:01:15;97638.44;;;-9.03;82.00
71697;BME280;68167;59.120;37.898;2024-01-11T06:03:42;97665.00;;;-9.03;82.27
71697;BME280;68167;59.120;37.898;2024-01-11T06:06:08;97635.22;;;-9.12;82.87
71697;BME280;68167;59.120;37.898;2024-01-11T06:08:35;97659.47;;;-9.00;81.74
71697;BME280;68167;59.120;37.898;2024-01-11T06:11:01;97654.69;;;-9.03;81.95
71697;BME280;68167;59.120;37.898;2024-01-11T06:13:27;97652.91;;;-9.02;82.50
71697;BME280;68167;59.120;37.898;2024-01-11T06:15:54;97634.34;;;-9.19;81.94
71697;BME280;68167;59.120;37.898;2024-01-11T06:18:21;97658.41;;;-9.12;82.04
71697;BME280;68167;59.120;37.898;2024-01-11T06:20:47;97655.03;;;-9.12;81.60
71697;BME280;68167;59.120;37.898;2024-01-11T06:23:13;97604.84;;;-9.59;81.56
71697;BME280;68167;59.120;37.898;2024-01-11T06:25:40;97684.28;;;-9.20;82.31
71697;BME280;68167;59.120;37.898;2024-01-11T06:28:08;97707.88;;;-9.16;82.24
71697;BME280;68167;59.120;37.898;2024-01-11T06:30:36;97640.16;;;-9.53;82.46
71697;BME280;68167;59.120;37.898;2024-01-11T06:33:02;97639.97;;;-9.51;82.72
71697;BME280;68167;59.120;37.898;2024-01-11T06:35:29;97654.09;;;-9.47;82.25
71697;BME280;68167;59.120;37.898;2024-01-11T06:37:57;97683.97;;;-9.32;82.16
71697;BME280;68167;59.120;37.898;2024-01-11T06:40:24;97723.72;;;-9.19;81.92
71697;BME280;68167;59.120;37.898;2024-01-11T06:42:50;97712.16;;;-9.23;82.41
71697;BME280;68167;59.120;37.898;2024-01-11T06:45:17;97700.63;;;-9.27;82.45
71697;BME280;68167;59.120;37.898;2024-01-11T06:47:43;97711.38;;;-9.24;82.61
71697;BME280;68167;59.120;37.898;2024-01-11T06:50:12;97715.00;;;-9.18;82.37
71697;BME280;68167;59.120;37.898;2024-01-11T06:52:39;97690.78;;;-9.24;82.76
71697;BME280;68167;59.120;37.898;2024-01-11T06:55:06;97723.16;;;-9.15;82.08
71697;BME280;68167;59.120;37.898;2024-01-11T06:57:32;97670.66;;;-9.35;82.36
71697;BME280;68167;59.120;37.898;2024-01-11T07:00:00;97681.56;;;-9.33;81.69
71697;BME280;68167;59.120;37.898;2024-01-11T07:02:26;97664.44;;;-9.41;81.68
71697;BME280;68167;59.120;37.898;2024-01-11T07:04:53;97707.16;;;-9.10;82.87
71697;BME280;68167;59.120;37.898;2024-01-11T07:07:19;97701.38;;;-9.12;82.00
71697;BME280;68167;59.120;37.898;2024-01-11T07:09:46;97720.06;;;-9.04;82.69
71697;BME280;68167;59.120;37.898;2024-01-11T07:12:12;97717.88;;;-9.07;82.89
71697;BME280;68167;59.120;37.898;2024-01-11T07:14:39;97729.41;;;-9.03;82.94
71697;BME280;68167;59.120;37.898;2024-01-11T07:17:05;97724.13;;;-8.94;83.16
71697;BME280;68167;59.120;37.898;2024-01-11T07:19:31;97711.78;;;-8.99;82.76
71697;BME280;68167;59.120;37.898;2024-01-11T07:21:58;97674.94;;;-9.21;82.29
71697;BME280;68167;59.120;37.898;2024-01-11T07:24:24;97712.03;;;-8.94;82.34
71697;BME280;68167;59.120;37.898;2024-01-11T07:26:51;97683.75;;;-9.09;83.52
71697;BME280;68167;59.120;37.898;2024-01-11T07:29:18;97733.81;;;-8.75;83.00
71697;BME280;68167;59.120;37.898;2024-01-11T07:31:44;97699.97;;;-8.93;82.41
71697;BME280;68167;59.120;37.898;2024-01-11T07:34:10;97735.47;;;-8.68;82.82
71697;BME280;68167;59.120;37.898;2024-01-11T07:36:37;97739.47;;;-8.65;83.13
71697;BME280;68167;59.120;37.898;2024-01-11T07:39:04;97703.44;;;-8.80;82.34
71697;BME280;68167;59.120;37.898;2024-01-11T07:41:30;97693.94;;;-8.79;83.39
71697;BME280;68167;59.120;37.898;2024-01-11T07:43:56;97691.59;;;-8.74;82.82
71697;BME280;68167;59.120;37.898;2024-01-11T07:46:24;97733.47;;;-8.44;82.99
71697;BME280;68167;59.120;37.898;2024-01-11T07:48:50;97738.69;;;-8.38;83.54
71697;BME280;68167;59.120;37.898;2024-01-11T07:51:16;97667.25;;;-8.72;82.47
71697;BME280;68167;59.120;37.898;2024-01-11T07:53:43;97692.75;;;-8.55;83.02
71697;BME280;68167;59.120;37.898;2024-01-11T07:56:10;97735.56;;;-8.26;82.94
71697;BME280;68167;59.120;37.898;2024-01-11T07:58:36;97688.88;;;-8.38;83.22
71697;BME280;68167;59.120;37.898;2024-01-11T08:01:03;97637.09;;;-8.71;83.19
71697;BME280;68167;59.120;37.898;2024-01-11T08:03:30;97731.66;;;-8.16;82.33
71697;BME280;68167;59.120;37.898;2024-01-11T08:05:56;97706.91;;;-8.45;82.51
71697;BME280;68167;59.120;37.898;2024-01-11T08:08:22;97735.97;;;-8.23;82.53
71697;BME280;68167;59.120;37.898;2024-01-11T08:10:50;97739.13;;;-8.27;83.21
71697;BME280;68167;59.120;37.898;2024-01-11T08:13:16;97749.50;;;-8.21;82.91
71697;BME280;68167;59.120;37.898;2024-01-11T08:15:43;97722.06;;;-8.28;83.02
71697;BME280;68167;59.120;37.898;2024-01-11T08:18:10;97711.31;;;-8.32;83.18
71697;BME280;68167;59.120;37.898;2024-01-11T08:20:36;97719.84;;;-8.32;83.64
71697;BME280;68167;59.120;37.898;2024-01-11T08:23:02;97722.06;;;-8.28;82.53
71697;BME280;68167;59.120;37.898;2024-01-11T08:25:29;97745.19;;;-8.14;82.89
71697;BME280;68167;59.120;37.898;2024-01-11T08:27:55;97730.88;;;-8.16;82.20
71697;BME280;68167;59.120;37.898;2024-01-11T08:30:22;97751.00;;;-8.05;83.05
71697;BME280;68167;59.120;37.898;2024-01-11T08:32:48;97752.22;;;-8.01;83.12
71697;BME280;68167;59.120;37.898;2024-01-11T08:35:14;97708.16;;;-8.34;83.63
71697;BME280;68167;59.120;37.898;2024-01-11T08:37:42;97749.81;;;-8.03;82.32
71697;BME280;68167;59.120;37.898;2024-01-11T08:40:08;97742.69;;;-8.01;83.09
71697;BME280;68167;59.120;37.898;2024-01-11T08:42:35;97699.69;;;-8.21;83.67
71697;BME280;68167;59.120;37.898;2024-01-11T08:45:01;97716.94;;;-8.22;82.59
71697;BME280;68167;59.120;37.898;2024-01-11T08:47:34;97714.34;;;-8.22;83.11
71697;BME280;68167;59.120;37.898;2024-01-11T08:50:00;97749.03;;;-8.03;83.58
71697;BME280;68167;59.120;37.898;2024-01-11T08:52:27;97732.56;;;-8.02;83.63
71697;BME280;68167;59.120;37.898;2024-01-11T08:54:53;97693.84;;;-8.37;82.39
71697;BME280;68167;59.120;37.898;2024-01-11T08:57:19;97751.66;;;-7.97;83.24
71697;BME280;68167;59.120;37.898;2024-01-11T08:59:45;97757.38;;;-8.01;83.22
71697;BME280;68167;59.120;37.898;2024-01-11T09:02:12;97774.31;;;-7.92;82.95
71697;BME280;68167;59.120;37.898;2024-01-11T09:04:38;97767.38;;;-7.91;82.95
71697;BME280;68167;59.120;37.898;2024-01-11T09:07:04;97735.09;;;-8.09;82.99
71697;BME280;68167;59.120;37.898;2024-01-11T09:09:30;97708.97;;;-8.27;83.09
71697;BME280;68167;59.120;37.898;2024-01-11T09:11:56;97772.34;;;-7.90;82.67
71697;BME280;68167;59.120;37.898;2024-01-11T09:14:23;97741.47;;;-8.05;83.14
71697;BME280;68167;59.120;37.898;2024-01-11T09:16:49;97728.53;;;-8.11;83.48
71697;BME280;68167;59.120;37.898;2024-01-11T09:19:15;97792.84;;;-7.75;83.17
71697;BME280;68167;59.120;37.898;2024-01-11T09:21:42;97765.19;;;-7.88;82.38
71697;BME280;68167;59.120;37.898;2024-01-11T09:24:08;97725.09;;;-8.18;82.46
71697;BME280;68167;59.120;37.898;2024-01-11T09:26:34;97786.47;;;-7.79;82.75
71697;BME280;68167;59.120;37.898;2024-01-11T09:29:02;97745.59;;;-8.10;82.65
71697;BME280;68167;59.120;37.898;2024-01-11T09:31:28;97779.28;;;-7.90;83.00
71697;BME280;68167;59.120;37.898;2024-01-11T09:33:55;97738.22;;;-8.13;82.19
71697;BME280;68167;59.120;37.898;2024-01-11T09:36:23;97788.63;;;-7.89;82.97
71697;BME280;68167;59.120;37.898;2024-01-11T09:38:52;97761.09;;;-8.10;82.03
71697;BME280;68167;59.120;37.898;2024-01-11T09:41:18;97766.44;;;-8.12;82.34
71697;BME280;68167;59.120;37.898;2024-01-11T09:43:45;97796.09;;;-8.01;81.82
71697;BME280;68167;59.120;37.898;2024-01-11T09:46:15;97735.22;;;-8.51;82.48
71697;BME280;68167;59.120;37.898;2024-01-11T09:48:43;97773.81;;;-8.30;81.74
71697;BME280;68167;59.120;37.898;2024-01-11T09:51:11;97794.53;;;-8.23;82.06
71697;BME280;68167;59.120;37.898;2024-01-11T09:53:38;97846.94;;;-7.95;81.98
71697;BME280;68167;59.120;37.898;2024-01-11T09:56:09;97846.34;;;-7.97;83.03
71697;BME280;68167;59.120;37.898;2024-01-11T09:58:36;97846.09;;;-8.02;82.81
71697;BME280;68167;59.120;37.898;2024-01-11T10:01:09;97841.91;;;-8.03;82.79
71697;BME280;68167;59.120;37.898;2024-01-11T10:03:41;97854.03;;;-8.04;82.80
71697;BME280;68167;59.120;37.898;2024-01-11T10:06:08;97847.69;;;-8.01;82.00
71697;BME280;68167;59.120;37.898;2024-01-11T10:08:36;97850.66;;;-8.04;81.85
71697;BME280;68167;59.120;37.898;2024-01-11T10:11:02;97851.63;;;-8.05;82.08
71697;BME280;68167;59.120;37.898;2024-01-11T10:13:32;97847.72;;;-8.22;82.16
71697;BME280;68167;59.120;37.898;2024-01-11T10:16:09;97870.38;;;-8.18;82.59
71697;BME280;68167;59.120;37.898;2024-01-11T10:18:39;97881.13;;;-8.14;81.91
71697;BME280;68167;59.120;37.898;2024-01-11T10:21:06;97904.91;;;-8.19;81.64
71697;BME280;68167;59.120;37.898;2024-01-11T10:23:36;97892.97;;;-8.20;81.88
71697;BME280;68167;59.120;37.898;2024-01-11T10:26:03;97906.19;;;-8.30;81.52
71697;BME280;68167;59.120;37.898;2024-01-11T10:28:30;97922.06;;;-8.33;81.05
71697;BME280;68167;59.120;37.898;2024-01-11T10:30:56;97912.59;;;-8.47;80.91
71697;BME280;68167;59.120;37.898;2024-01-11T10:33:23;97883.59;;;-8.85;80.51
71697;BME280;68167;59.120;37.898;2024-01-11T10:35:49;97877.84;;;-9.02;79.67
71697;BME280;68167;59.120;37.898;2024-01-11T10:38:17;97908.69;;;-8.93;80.33
71697;BME280;68167;59.120;37.898;2024-01-11T10:40:44;97931.25;;;-8.81;81.20
71697;BME280;68167;59.120;37.898;2024-01-11T10:43:11;97931.84;;;-8.79;81.51
71697;BME280;68167;59.120;37.898;2024-01-11T10:45:38;97924.56;;;-8.75;81.39
71697;BME280;68167;59.120;37.898;2024-01-11T10:48:15;97923.78;;;-8.76;81.17
71697;BME280;68167;59.120;37.898;2024-01-11T10:50:45;97932.22;;;-8.82;81.20
71697;BME280;68167;59.120;37.898;2024-01-11T10:53:41;97957.25;;;-8.61;81.77
71697;BME280;68167;59.120;37.898;2024-01-11T10:56:09;97901.03;;;-9.02;81.67
71697;BME280;68167;59.120;37.898;2024-01-11T10:58:42;97937.91;;;-8.72;81.84
71697;BME280;68167;59.120;37.898;2024-01-11T11:01:13;97918.88;;;-8.85;81.73
71697;BME280;68167;59.120;37.898;2024-01-11T11:03:40;97924.31;;;-8.95;81.84
71697;BME280;68167;59.120;37.898;2024-01-11T11:06:10;97925.56;;;-9.06;80.27
71697;BME280;68167;59.120;37.898;2024-01-11T11:08:38;97884.72;;;-9.23;81.51
71697;BME280;68167;59.120;37.898;2024-01-11T11:11:05;97953.19;;;-8.70;81.46
71697;BME280;68167;59.120;37.898;2024-01-11T11:13:33;97933.66;;;-8.94;80.04
71697;BME280;68167;59.120;37.898;2024-01-11T11:16:03;97947.16;;;-8.92;80.39
71697;BME280;68167;59.120;37.898;2024-01-11T11:18:31;97971.06;;;-8.69;81.21
71697;BME280;68167;59.120;37.898;2024-01-11T11:21:00;97989.28;;;-8.70;81.26
71697;BME280;68167;59.120;37.898;2024-01-11T11:23:26;97924.69;;;-9.13;80.28
71697;BME280;68167;59.120;37.898;2024-01-11T11:25:54;97985.63;;;-8.76;81.58
71697;BME280;68167;59.120;37.898;2024-01-11T11:28:22;97946.00;;;-9.04;80.90
71697;BME280;68167;59.120;37.898;2024-01-11T11:30:49;97980.38;;;-8.82;80.45
71697;BME280;68167;59.120;37.898;2024-01-11T11:33:23;98006.78;;;-8.80;81.17
71697;BME280;68167;59.120;37.898;2024-01-11T11:35:54;98009.72;;;-8.83;80.55
71697;BME280;68167;59.120;37.898;2024-01-11T11:38:22;98027.13;;;-8.85;80.49
71697;BME280;68167;59.120;37.898;2024-01-11T11:40:51;97979.78;;;-9.14;81.77
71697;BME280;68167;59.120;37.898;2024-01-11T11:43:19;98027.31;;;-8.87;81.19
71697;BME280;68167;59.120;37.898;2024-01-11T11:45:47;97930.69;;;-9.50;81.55
71697;BME280;68167;59.120;37.898;2024-01-11T11:53:35;98007.09;;;-9.27;80.43
71697;BME280;68167;59.120;37.898;2024-01-11T11:56:03;98039.56;;;-9.04;80.59
71697;BME280;68167;59.120;37.898;2024-01-11T11:58:30;98058.22;;;-9.02;80.47
71697;BME280;68167;59.120;37.898;2024-01-11T12:00:58;98044.66;;;-9.33;80.84
71697;BME280;68167;59.120;37.898;2024-01-11T12:03:29;98060.56;;;-9.29;79.63
71697;BME280;68167;59.120;37.898;2024-01-11T12:05:56;98019.44;;;-9.60;80.09
71697;BME280;68167;59.120;37.898;2024-01-11T12:08:23;98040.03;;;-9.60;79.83
71697;BME280;68167;59.120;37.898;2024-01-11T12:10:50;98094.38;;;-9.33;80.35
71697;BME280;68167;59.120;37.898;2024-01-11T12:13:17;98112.06;;;-9.29;79.76
71697;BME280;68167;59.120;37.898;2024-01-11T12:15:44;98095.41;;;-9.42;80.40
71697;BME280;68167;59.120;37.898;2024-01-11T12:18:10;98118.34;;;-9.55;80.79
71697;BME280;68167;59.120;37.898;2024-01-11T12:20:36;98121.56;;;-9.53;80.28
71697;BME280;68167;59.120;37.898;2024-01-11T12:23:03;98092.16;;;-9.81;80.78
71697;BME280;68167;59.120;37.898;2024-01-11T12:25:29;98142.94;;;-9.52;80.33
71697;BME280;68167;59.120;37.898;2024-01-11T12:27:55;98079.81;;;-9.94;80.77
71697;BME280;68167;59.120;37.898;2024-01-11T12:30:22;98160.50;;;-9.56;81.01
71697;BME280;68167;59.120;37.898;2024-01-11T12:32:53;98145.75;;;-9.62;80.56
71697;BME280;68167;59.120;37.898;2024-01-11T12:35:21;98113.41;;;-9.87;81.27
71697;BME280;68167;59.120;37.898;2024-01-11T12:38:03;98158.94;;;-9.65;80.89
71697;BME280;68167;59.120;37.898;2024-01-11T12:40:33;98173.41;;;-9.64;80.74
71697;BME280;68167;59.120;37.898;2024-01-11T12:43:00;98172.16;;;-9.68;80.12
71697;BME280;68167;59.120;37.898;2024-01-11T12:45:27;98197.38;;;-9.64;81.30
71697;BME280;68167;59.120;37.898;2024-01-11T12:47:55;98147.22;;;-9.99;81.07
71697;BME280;68167;59.120;37.898;2024-01-11T12:50:23;98161.84;;;-9.99;79.80
71697;BME280;68167;59.120;37.898;2024-01-11T12:55:34;98188.16;;;-9.81;80.75
71697;BME280;68167;59.120;37.898;2024-01-11T12:58:07;98168.63;;;-10.06;80.70